AEE576 LGTS-LGSA
Flight info
| Callsign | AEE576 |
|---|---|
| Flight time | 0h 56m |
| Altitude | 31000 |
| Route | LGTS/16 LEKP1B LEKPO UL617 SKP UM749 ATV UP169 MANOK UL612 RUSOS RUSO2W LGSA/11L |
| Aircraft | A320/M-VGDW/C |
Departure
| Time | 2026-04-28 17:51 |
|---|---|
| Airport | Thessaloniki Macedonia International Airport (LGTS) |
Arrival
| Time | 2026-04-28 18:47 |
|---|---|
| Airport | Chania International Airport (LGSA) |
| Time | Latitude | Longitude | Altitude | Speed | Heading |
|---|---|---|---|---|---|
| 2026-04-28 17:28 | 40.52322 | 22.97575 | 29 ft | 0 kts | 45° |
| 2026-04-28 17:40 | 40.52314 | 22.97564 | 28 ft | 4 kts | 42° |
| 2026-04-28 17:41 | 40.52293 | 22.97543 | 28 ft | 4 kts | 27° |
| 2026-04-28 17:41 | 40.52269 | 22.97534 | 28 ft | 4 kts | 344° |
| 2026-04-28 17:41 | 40.52259 | 22.97540 | 28 ft | 0 kts | 315° |
| 2026-04-28 17:45 | 40.52260 | 22.97538 | 28 ft | 1 kts | 315° |
| 2026-04-28 17:46 | 40.52272 | 22.97522 | 28 ft | 4 kts | 315° |
| 2026-04-28 17:46 | 40.52297 | 22.97489 | 28 ft | 6 kts | 315° |
| 2026-04-28 17:46 | 40.52334 | 22.97441 | 28 ft | 8 kts | 315° |
| 2026-04-28 17:46 | 40.52379 | 22.97383 | 28 ft | 10 kts | 315° |
| 2026-04-28 17:47 | 40.52397 | 22.97300 | 28 ft | 11 kts | 257° |
| 2026-04-28 17:47 | 40.52382 | 22.97190 | 28 ft | 14 kts | 275° |
| 2026-04-28 17:47 | 40.52459 | 22.97123 | 28 ft | 15 kts | 346° |
| 2026-04-28 17:47 | 40.52531 | 22.97100 | 29 ft | 17 kts | 346° |
| 2026-04-28 17:48 | 40.52693 | 22.97050 | 29 ft | 19 kts | 347° |
| 2026-04-28 17:48 | 40.52830 | 22.97008 | 29 ft | 22 kts | 346° |
| 2026-04-28 17:48 | 40.52983 | 22.96959 | 29 ft | 23 kts | 346° |
| 2026-04-28 17:48 | 40.53070 | 22.96904 | 28 ft | 8 kts | 290° |
| 2026-04-28 17:49 | 40.53058 | 22.96843 | 28 ft | 8 kts | 238° |
| 2026-04-28 17:49 | 40.53005 | 22.96792 | 28 ft | 11 kts | 201° |
| 2026-04-28 17:49 | 40.52938 | 22.96792 | 29 ft | 0 kts | 167° |
| 2026-04-28 17:50 | 40.52866 | 22.96814 | 30 ft | 40 kts | 166° |
| 2026-04-28 17:50 | 40.52364 | 22.96973 | 28 ft | 106 kts | 166° |
| 2026-04-28 17:50 | 40.51483 | 22.97250 | 51 ft | 151 kts | 167° |
| 2026-04-28 17:51 | 40.50464 | 22.97552 | 662 ft | 149 kts | 170° |
| 2026-04-28 17:51 | 40.49446 | 22.97830 | 1283 ft | 150 kts | 169° |
| 2026-04-28 17:51 | 40.48417 | 22.98114 | 1823 ft | 157 kts | 168° |
| 2026-04-28 17:51 | 40.47262 | 22.98424 | 2046 ft | 181 kts | 169° |
| 2026-04-28 17:52 | 40.45942 | 22.98766 | 2263 ft | 208 kts | 169° |
| 2026-04-28 17:52 | 40.44417 | 22.99150 | 2580 ft | 237 kts | 169° |
| 2026-04-28 17:52 | 40.41534 | 22.99979 | 3492 ft | 272 kts | 167° |
| 2026-04-28 17:53 | 40.39678 | 23.00556 | 4448 ft | 273 kts | 168° |
| 2026-04-28 17:53 | 40.37801 | 23.01104 | 5328 ft | 281 kts | 169° |
| 2026-04-28 17:53 | 40.35860 | 23.01645 | 6156 ft | 288 kts | 168° |
| 2026-04-28 17:53 | 40.33924 | 23.02411 | 6994 ft | 293 kts | 158° |
| 2026-04-28 17:54 | 40.32046 | 23.03475 | 7887 ft | 296 kts | 155° |
| 2026-04-28 17:54 | 40.30184 | 23.04654 | 8769 ft | 298 kts | 154° |
| 2026-04-28 17:54 | 40.28316 | 23.05869 | 9630 ft | 302 kts | 154° |
| 2026-04-28 17:54 | 40.26414 | 23.07089 | 10364 ft | 311 kts | 154° |
| 2026-04-28 17:55 | 40.24390 | 23.08356 | 10625 ft | 334 kts | 155° |
| 2026-04-28 17:55 | 40.22245 | 23.09670 | 11140 ft | 345 kts | 156° |
| 2026-04-28 17:55 | 40.20052 | 23.10987 | 11840 ft | 349 kts | 156° |
| 2026-04-28 17:55 | 40.17823 | 23.12309 | 12549 ft | 354 kts | 156° |
| 2026-04-28 17:56 | 40.15564 | 23.13643 | 13268 ft | 358 kts | 156° |
| 2026-04-28 17:56 | 40.13280 | 23.14998 | 13981 ft | 362 kts | 156° |
| 2026-04-28 17:56 | 40.10975 | 23.16362 | 14617 ft | 366 kts | 157° |
| 2026-04-28 17:56 | 40.08615 | 23.17643 | 15252 ft | 369 kts | 159° |
| 2026-04-28 17:57 | 40.06205 | 23.18846 | 15887 ft | 372 kts | 161° |
| 2026-04-28 17:57 | 40.03768 | 23.20007 | 16513 ft | 375 kts | 161° |
| 2026-04-28 17:57 | 40.01301 | 23.21170 | 17145 ft | 379 kts | 161° |
| 2026-04-28 17:57 | 39.98812 | 23.22352 | 17780 ft | 382 kts | 161° |
| 2026-04-28 17:58 | 39.96303 | 23.23561 | 18403 ft | 386 kts | 161° |
| 2026-04-28 17:58 | 39.93776 | 23.24793 | 18957 ft | 390 kts | 161° |
| 2026-04-28 17:58 | 39.91227 | 23.26048 | 19534 ft | 393 kts | 161° |
| 2026-04-28 17:58 | 39.88657 | 23.27317 | 20091 ft | 397 kts | 160° |
| 2026-04-28 17:59 | 39.86063 | 23.28595 | 20660 ft | 400 kts | 160° |
| 2026-04-28 17:59 | 39.83448 | 23.29881 | 21202 ft | 404 kts | 160° |
| 2026-04-28 17:59 | 39.80806 | 23.31176 | 21734 ft | 407 kts | 160° |
| 2026-04-28 17:59 | 39.78145 | 23.32480 | 22258 ft | 411 kts | 160° |
| 2026-04-28 18:00 | 39.75457 | 23.33796 | 22785 ft | 414 kts | 160° |
| 2026-04-28 18:00 | 39.72747 | 23.35118 | 23332 ft | 418 kts | 160° |
| 2026-04-28 18:00 | 39.70013 | 23.36450 | 23839 ft | 421 kts | 160° |
| 2026-04-28 18:00 | 39.67257 | 23.37788 | 24281 ft | 424 kts | 160° |
| 2026-04-28 18:01 | 39.64490 | 23.39131 | 24733 ft | 427 kts | 160° |
| 2026-04-28 18:01 | 39.61691 | 23.40492 | 25178 ft | 430 kts | 160° |
| 2026-04-28 18:01 | 39.58885 | 23.41861 | 25613 ft | 432 kts | 160° |
| 2026-04-28 18:01 | 39.56095 | 23.43221 | 26039 ft | 435 kts | 160° |
| 2026-04-28 18:02 | 39.53223 | 23.44614 | 26457 ft | 438 kts | 160° |
| 2026-04-28 18:02 | 39.50357 | 23.46004 | 26888 ft | 440 kts | 160° |
| 2026-04-28 18:02 | 39.47516 | 23.47379 | 27288 ft | 443 kts | 160° |
| 2026-04-28 18:02 | 39.44628 | 23.48774 | 27689 ft | 445 kts | 160° |
| 2026-04-28 18:03 | 39.41713 | 23.50178 | 28070 ft | 448 kts | 160° |
| 2026-04-28 18:03 | 39.38784 | 23.51590 | 28462 ft | 450 kts | 160° |
| 2026-04-28 18:03 | 39.35846 | 23.53013 | 28835 ft | 453 kts | 160° |
| 2026-04-28 18:03 | 39.32888 | 23.54449 | 29216 ft | 455 kts | 160° |
| 2026-04-28 18:04 | 39.29913 | 23.55892 | 29595 ft | 458 kts | 160° |
| 2026-04-28 18:04 | 39.26922 | 23.57338 | 29995 ft | 460 kts | 160° |
| 2026-04-28 18:04 | 39.23915 | 23.58786 | 30347 ft | 462 kts | 160° |
| 2026-04-28 18:04 | 39.20893 | 23.60237 | 30658 ft | 465 kts | 160° |
| 2026-04-28 18:05 | 39.17800 | 23.61463 | 30968 ft | 466 kts | 168° |
| 2026-04-28 18:05 | 39.15640 | 23.61967 | 31049 ft | 466 kts | 174° |
| 2026-04-28 18:05 | 39.11464 | 23.62584 | 31083 ft | 446 kts | 174° |
| 2026-04-28 18:05 | 39.08406 | 23.63028 | 31081 ft | 440 kts | 174° |
| 2026-04-28 18:06 | 39.02345 | 23.63914 | 31090 ft | 437 kts | 174° |
| 2026-04-28 18:06 | 38.96305 | 23.64806 | 31100 ft | 437 kts | 174° |
| 2026-04-28 18:07 | 38.90271 | 23.65703 | 31104 ft | 437 kts | 174° |
| 2026-04-28 18:07 | 38.84235 | 23.66591 | 31110 ft | 437 kts | 174° |
| 2026-04-28 18:08 | 38.78232 | 23.67466 | 31114 ft | 437 kts | 174° |
| 2026-04-28 18:08 | 38.72184 | 23.68355 | 31113 ft | 438 kts | 174° |
| 2026-04-28 18:09 | 38.66139 | 23.69244 | 31119 ft | 438 kts | 174° |
| 2026-04-28 18:09 | 38.60091 | 23.70124 | 31116 ft | 437 kts | 174° |
| 2026-04-28 18:10 | 38.54053 | 23.71009 | 31119 ft | 436 kts | 174° |
| 2026-04-28 18:10 | 38.48023 | 23.71893 | 31114 ft | 436 kts | 174° |
| 2026-04-28 18:11 | 38.41989 | 23.72771 | 31106 ft | 436 kts | 175° |
| 2026-04-28 18:11 | 38.35962 | 23.73644 | 31108 ft | 436 kts | 175° |
| 2026-04-28 18:12 | 38.29940 | 23.74516 | 31107 ft | 436 kts | 175° |
| 2026-04-28 18:12 | 38.23907 | 23.75385 | 31107 ft | 436 kts | 175° |
| 2026-04-28 18:13 | 38.17883 | 23.76255 | 31091 ft | 436 kts | 175° |
| 2026-04-28 18:13 | 38.11851 | 23.77130 | 31085 ft | 436 kts | 174° |
| 2026-04-28 18:14 | 38.05825 | 23.78006 | 31091 ft | 436 kts | 175° |
| 2026-04-28 18:14 | 37.99787 | 23.78878 | 31094 ft | 437 kts | 174° |
| 2026-04-28 18:15 | 37.93746 | 23.79753 | 31119 ft | 437 kts | 175° |
| 2026-04-28 18:15 | 37.87713 | 23.80622 | 31122 ft | 436 kts | 174° |
| 2026-04-28 18:16 | 37.81690 | 23.81564 | 31124 ft | 436 kts | 174° |
| 2026-04-28 18:16 | 37.75672 | 23.82556 | 31120 ft | 436 kts | 174° |
| 2026-04-28 18:17 | 37.69659 | 23.83541 | 31113 ft | 436 kts | 174° |
| 2026-04-28 18:17 | 37.63636 | 23.84510 | 31109 ft | 436 kts | 174° |
| 2026-04-28 18:18 | 37.57613 | 23.85469 | 31104 ft | 436 kts | 174° |
| 2026-04-28 18:18 | 37.52606 | 23.86271 | 31096 ft | 436 kts | 174° |
| 2026-04-28 18:19 | 37.45561 | 23.87405 | 31097 ft | 437 kts | 174° |
| 2026-04-28 18:19 | 37.39528 | 23.88366 | 31097 ft | 437 kts | 174° |
| 2026-04-28 18:20 | 37.33489 | 23.89323 | 31097 ft | 437 kts | 174° |
| 2026-04-28 18:20 | 37.27451 | 23.90283 | 31094 ft | 437 kts | 174° |
| 2026-04-28 18:21 | 37.21413 | 23.91243 | 31094 ft | 438 kts | 174° |
| 2026-04-28 18:21 | 37.15369 | 23.92206 | 31095 ft | 438 kts | 174° |
| 2026-04-28 18:22 | 37.09367 | 23.93151 | 31094 ft | 438 kts | 174° |
| 2026-04-28 18:22 | 37.03284 | 23.94118 | 31088 ft | 438 kts | 174° |
| 2026-04-28 18:23 | 36.97276 | 23.95065 | 31085 ft | 438 kts | 174° |
| 2026-04-28 18:23 | 36.91223 | 23.96015 | 31086 ft | 438 kts | 174° |
| 2026-04-28 18:24 | 36.86146 | 23.96810 | 31091 ft | 438 kts | 174° |
| 2026-04-28 18:24 | 36.82151 | 23.97433 | 30909 ft | 434 kts | 175° |
| 2026-04-28 18:24 | 36.79129 | 23.97908 | 30165 ft | 439 kts | 174° |
| 2026-04-28 18:25 | 36.76116 | 23.98384 | 29695 ft | 434 kts | 174° |
| 2026-04-28 18:25 | 36.73133 | 23.98855 | 29255 ft | 430 kts | 174° |
| 2026-04-28 18:25 | 36.70184 | 23.99319 | 28820 ft | 425 kts | 174° |
| 2026-04-28 18:26 | 36.64361 | 24.00229 | 27977 ft | 419 kts | 174° |
| 2026-04-28 18:26 | 36.61475 | 24.00681 | 27551 ft | 417 kts | 174° |
| 2026-04-28 18:26 | 36.58605 | 24.01132 | 27128 ft | 415 kts | 174° |
| 2026-04-28 18:26 | 36.55747 | 24.01581 | 26688 ft | 414 kts | 174° |
| 2026-04-28 18:27 | 36.52890 | 24.02028 | 26247 ft | 413 kts | 174° |
| 2026-04-28 18:27 | 36.50040 | 24.02468 | 25803 ft | 413 kts | 174° |
| 2026-04-28 18:27 | 36.47192 | 24.02906 | 25341 ft | 413 kts | 174° |
| 2026-04-28 18:27 | 36.44354 | 24.03465 | 24869 ft | 414 kts | 166° |
| 2026-04-28 18:28 | 36.41662 | 24.04716 | 24396 ft | 414 kts | 152° |
| 2026-04-28 18:28 | 36.39270 | 24.06682 | 23928 ft | 413 kts | 137° |
| 2026-04-28 18:28 | 36.37310 | 24.09237 | 23462 ft | 409 kts | 125° |
| 2026-04-28 18:28 | 36.35618 | 24.12063 | 23020 ft | 405 kts | 125° |
| 2026-04-28 18:29 | 36.33937 | 24.14875 | 22491 ft | 405 kts | 125° |
| 2026-04-28 18:29 | 36.32270 | 24.17663 | 22030 ft | 402 kts | 125° |
| 2026-04-28 18:29 | 36.30610 | 24.20431 | 21619 ft | 398 kts | 125° |
| 2026-04-28 18:29 | 36.28954 | 24.23186 | 21182 ft | 395 kts | 126° |
| 2026-04-28 18:30 | 36.27312 | 24.25908 | 20680 ft | 394 kts | 126° |
| 2026-04-28 18:30 | 36.26783 | 24.26785 | 20568 ft | 391 kts | 126° |
| 2026-04-28 18:30 | 36.24038 | 24.31274 | 19797 ft | 388 kts | 130° |
| 2026-04-28 18:30 | 36.22010 | 24.33448 | 19379 ft | 384 kts | 148° |
| 2026-04-28 18:31 | 36.19591 | 24.34816 | 18922 ft | 381 kts | 166° |
| 2026-04-28 18:31 | 36.17028 | 24.35279 | 18455 ft | 376 kts | 184° |
| 2026-04-28 18:31 | 36.14441 | 24.34854 | 17974 ft | 369 kts | 196° |
| 2026-04-28 18:31 | 36.11956 | 24.34156 | 17571 ft | 365 kts | 196° |
| 2026-04-28 18:32 | 36.09517 | 24.33469 | 17105 ft | 352 kts | 195° |
| 2026-04-28 18:32 | 36.07187 | 24.32813 | 16698 ft | 336 kts | 195° |
| 2026-04-28 18:32 | 36.04935 | 24.32180 | 16333 ft | 331 kts | 195° |
| 2026-04-28 18:32 | 36.02692 | 24.31546 | 15945 ft | 330 kts | 195° |
| 2026-04-28 18:33 | 36.00480 | 24.30921 | 15560 ft | 330 kts | 195° |
| 2026-04-28 18:33 | 35.98246 | 24.30290 | 15181 ft | 330 kts | 195° |
| 2026-04-28 18:33 | 35.95978 | 24.29652 | 14798 ft | 329 kts | 195° |
| 2026-04-28 18:33 | 35.93775 | 24.29037 | 14431 ft | 329 kts | 195° |
| 2026-04-28 18:34 | 35.91544 | 24.28414 | 14056 ft | 329 kts | 194° |
| 2026-04-28 18:34 | 35.89318 | 24.27792 | 13654 ft | 329 kts | 194° |
| 2026-04-28 18:34 | 35.87061 | 24.27163 | 13256 ft | 327 kts | 194° |
| 2026-04-28 18:34 | 35.84929 | 24.26322 | 13072 ft | 315 kts | 211° |
| 2026-04-28 18:35 | 35.83299 | 24.24651 | 12942 ft | 298 kts | 236° |
| 2026-04-28 18:35 | 35.82394 | 24.22444 | 12761 ft | 284 kts | 259° |
| 2026-04-28 18:35 | 35.82229 | 24.20077 | 12361 ft | 274 kts | 277° |
| 2026-04-28 18:35 | 35.82308 | 24.17723 | 11739 ft | 275 kts | 274° |
| 2026-04-28 18:36 | 35.82279 | 24.15366 | 11252 ft | 277 kts | 270° |
| 2026-04-28 18:36 | 35.82187 | 24.13791 | 11039 ft | 278 kts | 268° |
| 2026-04-28 18:36 | 35.81939 | 24.11443 | 10758 ft | 276 kts | 264° |
| 2026-04-28 18:36 | 35.81417 | 24.08380 | 10039 ft | 276 kts | 259° |
| 2026-04-28 18:37 | 35.81068 | 24.06845 | 9629 ft | 276 kts | 256° |
| 2026-04-28 18:37 | 35.80217 | 24.03902 | 9006 ft | 275 kts | 251° |
| 2026-04-28 18:37 | 35.79706 | 24.02434 | 8742 ft | 277 kts | 249° |
| 2026-04-28 18:37 | 35.78858 | 24.00310 | 8399 ft | 279 kts | 245° |
| 2026-04-28 18:38 | 35.77892 | 23.98250 | 8144 ft | 276 kts | 241° |
| 2026-04-28 18:38 | 35.76831 | 23.96274 | 7804 ft | 275 kts | 238° |
| 2026-04-28 18:38 | 35.75695 | 23.94389 | 7261 ft | 275 kts | 234° |
| 2026-04-28 18:38 | 35.74438 | 23.92615 | 6718 ft | 275 kts | 229° |
| 2026-04-28 18:39 | 35.73096 | 23.90964 | 6320 ft | 269 kts | 226° |
| 2026-04-28 18:39 | 35.71737 | 23.89470 | 6054 ft | 257 kts | 222° |
| 2026-04-28 18:39 | 35.70352 | 23.88106 | 5582 ft | 255 kts | 219° |
| 2026-04-28 18:39 | 35.68915 | 23.86853 | 5137 ft | 252 kts | 214° |
| 2026-04-28 18:40 | 35.67397 | 23.85695 | 4734 ft | 262 kts | 211° |
| 2026-04-28 18:40 | 35.65738 | 23.84856 | 4358 ft | 254 kts | 186° |
| 2026-04-28 18:40 | 35.64052 | 23.85099 | 4032 ft | 239 kts | 154° |
| 2026-04-28 18:40 | 35.62762 | 23.86251 | 3721 ft | 223 kts | 124° |
| 2026-04-28 18:41 | 35.62072 | 23.87868 | 3437 ft | 208 kts | 108° |
| 2026-04-28 18:41 | 35.61546 | 23.89488 | 3167 ft | 201 kts | 108° |
| 2026-04-28 18:41 | 35.61029 | 23.91062 | 2899 ft | 195 kts | 108° |
| 2026-04-28 18:41 | 35.60542 | 23.92532 | 2783 ft | 175 kts | 108° |
| 2026-04-28 18:42 | 35.60105 | 23.93840 | 2718 ft | 157 kts | 107° |
| 2026-04-28 18:42 | 35.59710 | 23.95029 | 2662 ft | 149 kts | 107° |
| 2026-04-28 18:42 | 35.59321 | 23.96213 | 2607 ft | 146 kts | 107° |
| 2026-04-28 18:42 | 35.58947 | 23.97354 | 2577 ft | 143 kts | 107° |
| 2026-04-28 18:43 | 35.58580 | 23.98474 | 2509 ft | 141 kts | 107° |
| 2026-04-28 18:43 | 35.58217 | 23.99589 | 2452 ft | 140 kts | 107° |
| 2026-04-28 18:43 | 35.57855 | 24.00702 | 2393 ft | 140 kts | 107° |
| 2026-04-28 18:43 | 35.57487 | 24.01809 | 2324 ft | 140 kts | 107° |
| 2026-04-28 18:44 | 35.57124 | 24.02913 | 2245 ft | 140 kts | 108° |
| 2026-04-28 18:44 | 35.56391 | 24.05116 | 1790 ft | 138 kts | 109° |
| 2026-04-28 18:44 | 35.56025 | 24.06203 | 1620 ft | 137 kts | 109° |
| 2026-04-28 18:45 | 35.55667 | 24.07279 | 1490 ft | 140 kts | 110° |
| 2026-04-28 18:45 | 35.55303 | 24.08410 | 1298 ft | 141 kts | 110° |
| 2026-04-28 18:45 | 35.54942 | 24.09517 | 1126 ft | 142 kts | 111° |
| 2026-04-28 18:45 | 35.54576 | 24.10635 | 938 ft | 140 kts | 111° |
| 2026-04-28 18:46 | 35.54218 | 24.11742 | 753 ft | 139 kts | 111° |
| 2026-04-28 18:46 | 35.53861 | 24.12841 | 598 ft | 138 kts | 111° |
| 2026-04-28 18:46 | 35.53510 | 24.13933 | 503 ft | 130 kts | 112° |
| 2026-04-28 18:46 | 35.53254 | 24.14728 | 486 ft | 60 kts | 111° |
| 2026-04-28 18:47 | 35.53153 | 24.15041 | 491 ft | 24 kts | 112° |
| 2026-04-28 18:47 | 35.53177 | 24.15124 | 491 ft | 5 kts | 8° |
| 2026-04-28 18:47 | 35.53202 | 24.15135 | 489 ft | 2 kts | 21° |
| 2026-04-28 18:47 | 35.53208 | 24.15138 | 491 ft | 0 kts | 21° |
| 2026-04-28 18:48 | 35.53219 | 24.15143 | 489 ft | 6 kts | 22° |
| 2026-04-28 18:48 | 35.53257 | 24.15166 | 491 ft | 6 kts | 30° |
| 2026-04-28 18:48 | 35.53293 | 24.15152 | 494 ft | 7 kts | 310° |
| 2026-04-28 18:49 | 35.53317 | 24.15091 | 491 ft | 9 kts | 292° |
| 2026-04-28 18:49 | 35.53334 | 24.15036 | 497 ft | 11 kts | 291° |
| 2026-04-28 18:49 | 35.53379 | 24.14899 | 488 ft | 15 kts | 292° |
| 2026-04-28 18:49 | 35.53422 | 24.14769 | 488 ft | 18 kts | 292° |
| 2026-04-28 18:50 | 35.53471 | 24.14616 | 491 ft | 21 kts | 291° |
| 2026-04-28 18:50 | 35.53521 | 24.14464 | 498 ft | 12 kts | 291° |
| 2026-04-28 18:50 | 35.53549 | 24.14379 | 498 ft | 12 kts | 292° |
| 2026-04-28 18:50 | 35.53582 | 24.14274 | 495 ft | 15 kts | 291° |
| 2026-04-28 18:51 | 35.53624 | 24.14146 | 495 ft | 18 kts | 291° |
| 2026-04-28 18:51 | 35.53668 | 24.14008 | 491 ft | 16 kts | 291° |
| 2026-04-28 18:51 | 35.53709 | 24.13885 | 492 ft | 15 kts | 292° |
| 2026-04-28 18:51 | 35.53744 | 24.13802 | 494 ft | 7 kts | 324° |
| 2026-04-28 18:52 | 35.53798 | 24.13812 | 495 ft | 9 kts | 19° |
| 2026-04-28 18:52 | 35.53859 | 24.13811 | 492 ft | 1 kts | 342° |
| 2026-04-28 18:52 | 35.53866 | 24.13811 | 495 ft | 2 kts | 359° |
| 2026-04-28 18:52 | 35.53891 | 24.13819 | 498 ft | 5 kts | 19° |
| 2026-04-28 18:53 | 35.53909 | 24.13828 | 498 ft | 2 kts | 24° |
| 2026-04-28 18:53 | 35.53929 | 24.13839 | 498 ft | 2 kts | 22° |
| 2026-04-28 18:53 | 35.53937 | 24.13843 | 498 ft | 0 kts | 22° |